sensor_id;sensor_type;location;lat;lon;timestamp;P1;durP1;ratioP1;P2;durP2;ratioP2
9094;SDS011;4583;49.796;9.902;2022-10-13T00:08:01;34.13;;;20.90;;
9094;SDS011;4583;49.796;9.902;2022-10-13T00:18:03;31.10;;;19.00;;
9094;SDS011;4583;49.796;9.902;2022-10-13T00:28:04;33.67;;;19.03;;
9094;SDS011;4583;49.796;9.902;2022-10-13T00:38:06;34.43;;;20.23;;
9094;SDS011;4583;49.796;9.902;2022-10-13T00:48:08;31.27;;;19.60;;
9094;SDS011;4583;49.796;9.902;2022-10-13T00:58:10;30.43;;;19.43;;
9094;SDS011;4583;49.796;9.902;2022-10-13T01:08:16;44.17;;;22.30;;
9094;SDS011;4583;49.796;9.902;2022-10-13T01:39:23;35.03;;;20.97;;
9094;SDS011;4583;49.796;9.902;2022-10-13T01:50:16;50.23;;;24.23;;
9094;SDS011;4583;49.796;9.902;2022-10-13T02:00:19;49.27;;;24.13;;
9094;SDS011;4583;49.796;9.902;2022-10-13T02:10:26;39.80;;;22.60;;
9094;SDS011;4583;49.796;9.902;2022-10-13T02:20:35;43.53;;;22.80;;
9094;SDS011;4583;49.796;9.902;2022-10-13T02:30:37;36.50;;;21.27;;
9094;SDS011;4583;49.796;9.902;2022-10-13T02:40:41;32.00;;;19.37;;
9094;SDS011;4583;49.796;9.902;2022-10-13T02:50:42;35.00;;;20.47;;
9094;SDS011;4583;49.796;9.902;2022-10-13T03:00:44;43.37;;;21.40;;
9094;SDS011;4583;49.796;9.902;2022-10-13T03:10:46;35.27;;;19.67;;
9094;SDS011;4583;49.796;9.902;2022-10-13T03:20:59;37.13;;;20.93;;
9094;SDS011;4583;49.796;9.902;2022-10-13T03:31:03;36.30;;;21.50;;
9094;SDS011;4583;49.796;9.902;2022-10-13T03:41:08;41.23;;;21.33;;
9094;SDS011;4583;49.796;9.902;2022-10-13T03:51:15;42.67;;;22.57;;
9094;SDS011;4583;49.796;9.902;2022-10-13T04:01:18;39.97;;;21.67;;
9094;SDS011;4583;49.796;9.902;2022-10-13T04:11:22;41.70;;;21.87;;
9094;SDS011;4583;49.796;9.902;2022-10-13T04:21:24;36.80;;;20.73;;
9094;SDS011;4583;49.796;9.902;2022-10-13T04:31:27;40.20;;;22.57;;
9094;SDS011;4583;49.796;9.902;2022-10-13T04:41:29;39.30;;;21.27;;
9094;SDS011;4583;49.796;9.902;2022-10-13T04:51:31;49.60;;;21.97;;
9094;SDS011;4583;49.796;9.902;2022-10-13T05:01:33;47.77;;;24.23;;
9094;SDS011;4583;49.796;9.902;2022-10-13T05:11:36;58.37;;;25.90;;
9094;SDS011;4583;49.796;9.902;2022-10-13T05:21:37;50.70;;;24.43;;
9094;SDS011;4583;49.796;9.902;2022-10-13T05:31:39;45.37;;;25.43;;
9094;SDS011;4583;49.796;9.902;2022-10-13T05:41:41;41.70;;;24.10;;
9094;SDS011;4583;49.796;9.902;2022-10-13T05:51:44;43.07;;;21.03;;
9094;SDS011;4583;49.796;9.902;2022-10-13T06:01:48;37.97;;;20.47;;
9094;SDS011;4583;49.796;9.902;2022-10-13T06:11:51;32.07;;;20.23;;
9094;SDS011;4583;49.796;9.902;2022-10-13T06:21:52;33.60;;;19.77;;
9094;SDS011;4583;49.796;9.902;2022-10-13T06:31:54;39.67;;;19.53;;
9094;SDS011;4583;49.796;9.902;2022-10-13T06:41:56;44.60;;;19.23;;
9094;SDS011;4583;49.796;9.902;2022-10-13T06:51:58;34.43;;;18.67;;
9094;SDS011;4583;49.796;9.902;2022-10-13T07:01:59;39.87;;;19.40;;
9094;SDS011;4583;49.796;9.902;2022-10-13T07:12:01;44.03;;;21.73;;
9094;SDS011;4583;49.796;9.902;2022-10-13T07:22:02;36.13;;;19.93;;
9094;SDS011;4583;49.796;9.902;2022-10-13T07:32:05;38.57;;;20.03;;
9094;SDS011;4583;49.796;9.902;2022-10-13T07:42:07;30.83;;;16.87;;
9094;SDS011;4583;49.796;9.902;2022-10-13T07:52:09;30.93;;;16.17;;
9094;SDS011;4583;49.796;9.902;2022-10-13T08:02:10;31.53;;;17.37;;
9094;SDS011;4583;49.796;9.902;2022-10-13T08:12:12;34.80;;;18.03;;
9094;SDS011;4583;49.796;9.902;2022-10-13T08:22:14;30.80;;;18.07;;
9094;SDS011;4583;49.796;9.902;2022-10-13T08:32:15;31.40;;;17.60;;
9094;SDS011;4583;49.796;9.902;2022-10-13T08:42:19;30.20;;;16.70;;
9094;SDS011;4583;49.796;9.902;2022-10-13T08:52:24;31.93;;;16.13;;
9094;SDS011;4583;49.796;9.902;2022-10-13T09:02:28;30.00;;;15.37;;
9094;SDS011;4583;49.796;9.902;2022-10-13T09:12:31;23.87;;;15.20;;
9094;SDS011;4583;49.796;9.902;2022-10-13T09:32:39;26.37;;;15.00;;
9094;SDS011;4583;49.796;9.902;2022-10-13T09:42:41;27.17;;;16.53;;
9094;SDS011;4583;49.796;9.902;2022-10-13T09:52:49;23.53;;;13.67;;
9094;SDS011;4583;49.796;9.902;2022-10-13T10:13:11;23.93;;;15.67;;
9094;SDS011;4583;49.796;9.902;2022-10-13T10:33:33;24.17;;;12.93;;
9094;SDS011;4583;49.796;9.902;2022-10-13T10:43:51;26.30;;;13.13;;
9094;SDS011;4583;49.796;9.902;2022-10-13T10:54:03;20.47;;;13.27;;
9094;SDS011;4583;49.796;9.902;2022-10-13T11:04:43;22.00;;;11.80;;
9094;SDS011;4583;49.796;9.902;2022-10-13T11:35:34;18.30;;;9.97;;
9094;SDS011;4583;49.796;9.902;2022-10-13T11:56:12;22.50;;;11.27;;
9094;SDS011;4583;49.796;9.902;2022-10-13T12:16:33;20.27;;;9.37;;
9094;SDS011;4583;49.796;9.902;2022-10-13T12:26:34;13.80;;;7.63;;
9094;SDS011;4583;49.796;9.902;2022-10-13T12:36:37;28.63;;;20.43;;
9094;SDS011;4583;49.796;9.902;2022-10-13T12:46:40;16.60;;;9.70;;
9094;SDS011;4583;49.796;9.902;2022-10-13T12:56:43;15.90;;;8.97;;
9094;SDS011;4583;49.796;9.902;2022-10-13T13:06:55;17.30;;;9.27;;
9094;SDS011;4583;49.796;9.902;2022-10-13T13:17:05;19.57;;;9.53;;
9094;SDS011;4583;49.796;9.902;2022-10-13T13:37:30;26.37;;;11.37;;
9094;SDS011;4583;49.796;9.902;2022-10-13T13:47:38;15.93;;;8.60;;
9094;SDS011;4583;49.796;9.902;2022-10-13T13:57:41;20.03;;;9.37;;
9094;SDS011;4583;49.796;9.902;2022-10-13T14:07:43;21.90;;;11.53;;
9094;SDS011;4583;49.796;9.902;2022-10-13T14:17:45;16.17;;;8.53;;
9094;SDS011;4583;49.796;9.902;2022-10-13T14:27:46;15.93;;;8.67;;
9094;SDS011;4583;49.796;9.902;2022-10-13T14:37:48;19.07;;;8.57;;
9094;SDS011;4583;49.796;9.902;2022-10-13T14:47:50;16.50;;;9.60;;
9094;SDS011;4583;49.796;9.902;2022-10-13T14:57:53;17.40;;;10.20;;
9094;SDS011;4583;49.796;9.902;2022-10-13T15:07:55;17.17;;;8.93;;
9094;SDS011;4583;49.796;9.902;2022-10-13T15:17:56;14.97;;;8.97;;
9094;SDS011;4583;49.796;9.902;2022-10-13T15:27:58;15.77;;;8.67;;
9094;SDS011;4583;49.796;9.902;2022-10-13T15:38:00;16.77;;;9.30;;
9094;SDS011;4583;49.796;9.902;2022-10-13T15:48:02;16.93;;;8.97;;
9094;SDS011;4583;49.796;9.902;2022-10-13T15:58:05;18.93;;;9.23;;
9094;SDS011;4583;49.796;9.902;2022-10-13T16:08:13;16.87;;;9.60;;
9094;SDS011;4583;49.796;9.902;2022-10-13T16:18:15;17.83;;;9.87;;
9094;SDS011;4583;49.796;9.902;2022-10-13T16:28:16;20.60;;;10.37;;
9094;SDS011;4583;49.796;9.902;2022-10-13T16:38:18;16.73;;;9.93;;
9094;SDS011;4583;49.796;9.902;2022-10-13T16:48:20;21.67;;;11.03;;
9094;SDS011;4583;49.796;9.902;2022-10-13T16:58:22;21.03;;;10.80;;
9094;SDS011;4583;49.796;9.902;2022-10-13T17:08:23;18.77;;;11.80;;
9094;SDS011;4583;49.796;9.902;2022-10-13T17:18:25;18.30;;;10.63;;
9094;SDS011;4583;49.796;9.902;2022-10-13T17:28:27;20.03;;;10.33;;
9094;SDS011;4583;49.796;9.902;2022-10-13T17:38:29;18.37;;;11.43;;
9094;SDS011;4583;49.796;9.902;2022-10-13T17:48:31;19.20;;;11.57;;
9094;SDS011;4583;49.796;9.902;2022-10-13T17:58:37;18.20;;;11.33;;
9094;SDS011;4583;49.796;9.902;2022-10-13T18:08:39;23.63;;;11.80;;
9094;SDS011;4583;49.796;9.902;2022-10-13T18:18:41;24.20;;;12.73;;
9094;SDS011;4583;49.796;9.902;2022-10-13T18:28:45;19.87;;;12.70;;
9094;SDS011;4583;49.796;9.902;2022-10-13T18:38:48;24.60;;;12.70;;
9094;SDS011;4583;49.796;9.902;2022-10-13T18:48:50;21.90;;;14.03;;
9094;SDS011;4583;49.796;9.902;2022-10-13T18:58:54;27.67;;;17.87;;
9094;SDS011;4583;49.796;9.902;2022-10-13T19:09:01;21.97;;;12.53;;
9094;SDS011;4583;49.796;9.902;2022-10-13T19:19:04;20.20;;;12.87;;
9094;SDS011;4583;49.796;9.902;2022-10-13T19:29:10;25.97;;;13.63;;
9094;SDS011;4583;49.796;9.902;2022-10-13T19:39:15;23.33;;;14.73;;
9094;SDS011;4583;49.796;9.902;2022-10-13T19:49:24;24.00;;;15.63;;
9094;SDS011;4583;49.796;9.902;2022-10-13T19:59:26;28.47;;;17.17;;
9094;SDS011;4583;49.796;9.902;2022-10-13T20:09:28;36.93;;;19.10;;
9094;SDS011;4583;49.796;9.902;2022-10-13T20:19:30;29.03;;;17.20;;
9094;SDS011;4583;49.796;9.902;2022-10-13T20:29:31;27.07;;;18.00;;
9094;SDS011;4583;49.796;9.902;2022-10-13T20:39:33;28.90;;;17.60;;
9094;SDS011;4583;49.796;9.902;2022-10-13T20:49:35;25.70;;;15.70;;
9094;SDS011;4583;49.796;9.902;2022-10-13T20:59:36;27.57;;;15.27;;
9094;SDS011;4583;49.796;9.902;2022-10-13T21:09:38;27.17;;;14.73;;
9094;SDS011;4583;49.796;9.902;2022-10-13T21:19:40;21.57;;;14.57;;
9094;SDS011;4583;49.796;9.902;2022-10-13T21:29:41;23.83;;;14.17;;
9094;SDS011;4583;49.796;9.902;2022-10-13T21:39:43;23.37;;;14.07;;
9094;SDS011;4583;49.796;9.902;2022-10-13T21:49:45;22.30;;;13.97;;
9094;SDS011;4583;49.796;9.902;2022-10-13T21:59:46;21.87;;;13.57;;
9094;SDS011;4583;49.796;9.902;2022-10-13T22:09:48;20.13;;;14.30;;
9094;SDS011;4583;49.796;9.902;2022-10-13T22:19:50;26.53;;;15.80;;
9094;SDS011;4583;49.796;9.902;2022-10-13T22:29:51;29.47;;;17.20;;
9094;SDS011;4583;49.796;9.902;2022-10-13T22:39:53;25.40;;;16.43;;
9094;SDS011;4583;49.796;9.902;2022-10-13T22:49:55;25.80;;;15.63;;
9094;SDS011;4583;49.796;9.902;2022-10-13T22:59:56;16.07;;;10.13;;
9094;SDS011;4583;49.796;9.902;2022-10-13T23:09:58;16.83;;;10.90;;
9094;SDS011;4583;49.796;9.902;2022-10-13T23:20:00;15.03;;;9.17;;
9094;SDS011;4583;49.796;9.902;2022-10-13T23:30:02;12.50;;;8.20;;
9094;SDS011;4583;49.796;9.902;2022-10-13T23:40:04;13.53;;;8.93;;
9094;SDS011;4583;49.796;9.902;2022-10-13T23:50:06;11.93;;;7.90;;
